Time;durP1;ratioP1;P1;durP2;ratioP2;P2;SDS_P1;SDS_P2;PMS_P1;PMS_P2;Temp;Humidity;BMP_temperature;BMP_pressure;BME280_temperature;BME280_humidity;BME280_pressure;Samples;Min_cycle;Max_cycle;Signal;HPM_P1;HPM_P2
2023/01/13 00:02:16;;;;;;;2.33;1.33;;;;;;;;;;5073242;28;20212;-77
2023/01/13 00:04:43;;;;;;;1.67;1.33;;;;;;;;;;5073576;28;20225;-78
2023/01/13 00:07:10;;;;;;;1.50;1.40;;;;;;;;;;5072739;28;20237;-78
2023/01/13 00:09:39;;;;;;;2.10;1.40;;;;;;;;;;5073219;28;20647;-78
2023/01/13 00:12:06;;;;;;;2.40;1.37;;;;;;;;;;5072634;28;20724;-77
2023/01/13 00:14:34;;;;;;;1.47;1.37;;;;;;;;;;5073279;28;20198;-78
2023/01/13 00:17:01;;;;;;;1.70;1.27;;;;;;;;;;5072620;28;20260;-78
2023/01/13 00:19:28;;;;;;;2.77;1.30;;;;;;;;;;5073016;28;20212;-78
2023/01/13 00:21:55;;;;;;;2.00;1.80;;;;;;;;;;5072546;28;20240;-78
2023/01/13 00:24:22;;;;;;;1.60;1.50;;;;;;;;;;5072694;28;20244;-78
2023/01/13 00:26:52;;;;;;;2.47;1.50;;;;;;;;;;5072511;28;20241;-78
2023/01/13 00:29:19;;;;;;;1.90;1.70;;;;;;;;;;5072615;28;20255;-78
2023/01/13 00:31:46;;;;;;;1.60;1.50;;;;;;;;;;5072409;28;20713;-78
2023/01/13 00:34:13;;;;;;;2.33;1.67;;;;;;;;;;5072270;28;20665;-78
2023/01/13 00:36:40;;;;;;;1.20;1.20;;;;;;;;;;5072159;28;20229;-78
2023/01/13 00:39:07;;;;;;;1.50;1.40;;;;;;;;;;5072521;28;20213;-78
2023/01/13 00:44:17;;;;;;;2.70;1.93;;;;;;;;;;5071975;28;20370;-78
2023/01/13 00:46:44;;;;;;;1.47;1.37;;;;;;;;;;5072257;28;20237;-78
2023/01/13 00:49:11;;;;;;;2.03;1.47;;;;;;;;;;5072763;28;20232;-78
2023/01/13 00:51:38;;;;;;;2.50;1.43;;;;;;;;;;5071908;28;20236;-78
2023/01/13 00:54:05;;;;;;;1.67;1.57;;;;;;;;;;5072282;28;20212;-78
2023/01/13 00:56:32;;;;;;;1.50;1.40;;;;;;;;;;5071813;28;20240;-79
2023/01/13 00:59:00;;;;;;;1.30;1.20;;;;;;;;;;5072825;28;20201;-78
2023/01/13 01:01:29;;;;;;;2.83;1.50;;;;;;;;;;5070319;28;20235;-78
2023/01/13 01:03:56;;;;;;;2.27;1.40;;;;;;;;;;5051862;28;20222;-78
2023/01/13 01:06:24;;;;;;;1.80;1.50;;;;;;;;;;5051637;28;20234;-78
2023/01/13 01:08:52;;;;;;;1.57;1.47;;;;;;;;;;5051883;28;20222;-79
2023/01/13 01:11:20;;;;;;;1.90;1.50;;;;;;;;;;5051651;28;20241;-78
2023/01/13 01:13:47;;;;;;;1.30;1.20;;;;;;;;;;5052034;28;20210;-78
2023/01/13 01:16:15;;;;;;;2.40;1.47;;;;;;;;;;5051550;28;20241;-78
2023/01/13 01:18:44;;;;;;;1.30;1.20;;;;;;;;;;5052073;28;20234;-78
2023/01/13 01:21:12;;;;;;;1.50;1.40;;;;;;;;;;5051327;28;20233;-78
2023/01/13 01:23:39;;;;;;;2.47;1.30;;;;;;;;;;5051686;28;20228;-78
2023/01/13 01:26:07;;;;;;;1.80;1.33;;;;;;;;;;5051429;28;20234;-78
2023/01/13 01:28:35;;;;;;;1.50;1.40;;;;;;;;;;5052081;28;20226;-78
2023/01/13 01:31:06;;;;;;;4.03;1.73;;;;;;;;;;5051629;28;20233;-78
2023/01/13 01:33:33;;;;;;;1.63;1.30;;;;;;;;;;5051610;28;20217;-78
2023/01/13 01:36:02;;;;;;;2.60;1.27;;;;;;;;;;5051236;28;20714;-78
2023/01/13 01:38:29;;;;;;;1.97;1.40;;;;;;;;;;5051633;28;20235;-78
2023/01/13 01:40:57;;;;;;;1.57;1.20;;;;;;;;;;5051248;28;20602;-78
2023/01/13 01:46:28;;;;;;;1.10;1.10;;;;;;;;;;5051271;28;20248;-78
2023/01/13 01:48:57;;;;;;;1.20;1.20;;;;;;;;;;5051576;28;20214;-78
2023/01/13 01:51:25;;;;;;;1.57;1.43;;;;;;;;;;5051064;28;20237;-78
2023/01/13 01:53:54;;;;;;;1.30;1.20;;;;;;;;;;5050752;28;20253;-78
2023/01/13 01:56:21;;;;;;;1.40;1.30;;;;;;;;;;5050942;28;20234;-78
2023/01/13 01:58:50;;;;;;;1.37;1.30;;;;;;;;;;5051285;28;20230;-78
2023/01/13 02:01:18;;;;;;;2.83;1.43;;;;;;;;;;5050290;28;20261;-78
2023/01/13 02:03:46;;;;;;;1.53;1.40;;;;;;;;;;5060011;28;20237;-78
2023/01/13 02:06:13;;;;;;;1.50;1.40;;;;;;;;;;5057753;28;20238;-78
2023/01/13 02:08:42;;;;;;;1.30;1.30;;;;;;;;;;5064988;28;20228;-78
2023/01/13 02:14:07;;;;;;;1.50;1.40;;;;;;;;;;5050584;28;20243;-78
2023/01/13 02:16:35;;;;;;;1.50;1.30;;;;;;;;;;5050814;28;20602;-78
2023/01/13 02:19:07;;;;;;;1.30;1.20;;;;;;;;;;5051084;28;20202;-78
2023/01/13 02:21:42;;;;;;;1.10;1.10;;;;;;;;;;5050810;28;20241;-78
2023/01/13 02:24:53;;;;;;;1.33;1.23;;;;;;;;;;5051071;28;20213;-78
2023/01/13 02:27:32;;;;;;;1.13;1.13;;;;;;;;;;5022706;28;20226;-79
2023/01/13 02:32:55;;;;;;;1.33;1.10;;;;;;;;;;5051378;28;20189;-78
2023/01/13 02:35:25;;;;;;;1.20;1.20;;;;;;;;;;5051752;28;20233;-78
2023/01/13 02:37:53;;;;;;;1.30;1.20;;;;;;;;;;5051925;28;20230;-78
2023/01/13 02:40:25;;;;;;;1.20;1.20;;;;;;;;;;5051712;28;20234;-78
2023/01/13 02:45:45;;;;;;;1.80;1.23;;;;;;;;;;5052688;28;20333;-77
2023/01/13 02:48:14;;;;;;;1.30;1.30;;;;;;;;;;5052148;28;20226;-78
2023/01/13 02:50:43;;;;;;;1.40;1.37;;;;;;;;;;5051672;28;20226;-78
2023/01/13 02:53:12;;;;;;;1.20;1.20;;;;;;;;;;5052025;28;20805;-78
2023/01/13 02:55:45;;;;;;;1.27;1.20;;;;;;;;;;5051344;28;20236;-78
2023/01/13 02:58:14;;;;;;;1.27;1.07;;;;;;;;;;5051684;28;20238;-78
2023/01/13 03:00:42;;;;;;;1.07;1.07;;;;;;;;;;5051605;28;20230;-79
2023/01/13 03:03:10;;;;;;;1.53;1.37;;;;;;;;;;5066992;28;20288;-78
2023/01/13 03:05:38;;;;;;;1.30;1.30;;;;;;;;;;5073173;28;20252;-79
2023/01/13 03:08:14;;;;;;;1.10;1.10;;;;;;;;;;5076150;28;20236;-79
2023/01/13 03:10:47;;;;;;;1.30;1.20;;;;;;;;;;5075441;28;20229;-79
2023/01/13 03:13:28;;;;;;;1.10;1.10;;;;;;;;;;5074939;28;20594;-79
2023/01/13 03:16:00;;;;;;;1.60;1.30;;;;;;;;;;5074716;28;20233;-79
2023/01/13 03:18:35;;;;;;;1.30;1.30;;;;;;;;;;5075274;28;20701;-79
2023/01/13 03:21:05;;;;;;;1.20;1.10;;;;;;;;;;5074933;28;20229;-78
2023/01/13 03:23:35;;;;;;;2.10;1.13;;;;;;;;;;5074730;28;20689;-78
2023/01/13 03:26:07;;;;;;;1.07;1.07;;;;;;;;;;5074838;28;20268;-78
2023/01/13 03:28:36;;;;;;;1.17;1.17;;;;;;;;;;5074876;28;20229;-78
2023/01/13 03:31:05;;;;;;;1.40;1.30;;;;;;;;;;5074527;28;20237;-78
2023/01/13 03:33:35;;;;;;;1.67;1.30;;;;;;;;;;5075195;28;20669;-78
2023/01/13 03:36:03;;;;;;;1.70;1.20;;;;;;;;;;5074625;28;20236;-78
2023/01/13 03:38:32;;;;;;;1.53;1.40;;;;;;;;;;5074645;28;20232;-78
2023/01/13 03:41:00;;;;;;;1.60;1.30;;;;;;;;;;5074155;28;20257;-78
2023/01/13 03:46:18;;;;;;;1.77;1.20;;;;;;;;;;5073672;28;20276;-78
2023/01/13 03:48:47;;;;;;;2.20;1.30;;;;;;;;;;5074561;28;20316;-78
2023/01/13 03:51:17;;;;;;;1.40;1.30;;;;;;;;;;5074126;28;20236;-78
2023/01/13 03:53:48;;;;;;;1.60;1.23;;;;;;;;;;5074546;28;20621;-78
2023/01/13 03:56:17;;;;;;;1.53;1.43;;;;;;;;;;5074214;28;20233;-79
2023/01/13 03:58:46;;;;;;;1.23;1.23;;;;;;;;;;5073572;28;20228;-78
2023/01/13 04:01:15;;;;;;;1.33;1.33;;;;;;;;;;5074473;28;20270;-78
2023/01/13 04:03:45;;;;;;;1.60;1.50;;;;;;;;;;5053970;28;20202;-79
2023/01/13 04:06:16;;;;;;;2.50;1.50;;;;;;;;;;5054093;28;20605;-79
2023/01/13 04:08:47;;;;;;;2.67;1.60;;;;;;;;;;5054327;28;20680;-79
2023/01/13 04:11:18;;;;;;;1.13;1.13;;;;;;;;;;5053388;28;20603;-78
2023/01/13 04:13:47;;;;;;;3.33;1.47;;;;;;;;;;5054213;28;20210;-79
2023/01/13 04:16:14;;;;;;;1.27;1.20;;;;;;;;;;5053806;28;20237;-78
2023/01/13 04:18:41;;;;;;;1.50;1.40;;;;;;;;;;5053201;28;20717;-79
2023/01/13 04:21:08;;;;;;;1.00;1.00;;;;;;;;;;5053245;28;20230;-79
2023/01/13 04:23:37;;;;;;;2.00;1.60;;;;;;;;;;5053562;28;20292;-79
2023/01/13 04:26:04;;;;;;;1.20;1.20;;;;;;;;;;5052726;28;20253;-79
2023/01/13 04:28:32;;;;;;;1.20;1.20;;;;;;;;;;5053881;28;20225;-78
2023/01/13 04:30:59;;;;;;;1.60;1.50;;;;;;;;;;5054435;28;20317;-78
2023/01/13 04:33:26;;;;;;;1.60;1.40;;;;;;;;;;5053670;28;20198;-78
2023/01/13 04:35:54;;;;;;;1.20;1.20;;;;;;;;;;5053513;28;20230;-79
2023/01/13 04:38:21;;;;;;;1.60;1.40;;;;;;;;;;5053651;28;20291;-78
2023/01/13 04:40:50;;;;;;;2.00;1.40;;;;;;;;;;5053081;28;20226;-79
2023/01/13 04:43:17;;;;;;;1.77;1.67;;;;;;;;;;5053152;28;20213;-78
2023/01/13 04:45:44;;;;;;;1.67;1.57;;;;;;;;;;5052875;28;20238;-78
2023/01/13 04:48:11;;;;;;;2.50;2.10;;;;;;;;;;5053366;28;20252;-78
2023/01/13 04:50:38;;;;;;;2.97;1.90;;;;;;;;;;5052689;28;20233;-79
2023/01/13 04:53:05;;;;;;;2.23;1.97;;;;;;;;;;5052683;28;20206;-78
2023/01/13 04:55:34;;;;;;;1.20;1.13;;;;;;;;;;5052579;28;20237;-78
2023/01/13 04:58:06;;;;;;;1.40;1.30;;;;;;;;;;5053151;28;20656;-79
2023/01/13 05:00:33;;;;;;;1.93;1.40;;;;;;;;;;5052635;28;20258;-79
2023/01/13 05:03:00;;;;;;;1.30;1.30;;;;;;;;;;5052555;28;20213;-78
2023/01/13 05:05:27;;;;;;;1.30;1.30;;;;;;;;;;5052066;28;20249;-78
2023/01/13 05:07:55;;;;;;;1.50;1.40;;;;;;;;;;5052083;28;20233;-79
2023/01/13 05:10:23;;;;;;;1.10;1.10;;;;;;;;;;5051755;28;20245;-79
2023/01/13 05:18:21;;;;;;;1.53;1.20;;;;;;;;;;5052049;28;20343;-78
2023/01/13 05:20:48;;;;;;;1.30;1.30;;;;;;;;;;5051906;28;20233;-78
2023/01/13 05:25:59;;;;;;;1.10;1.10;;;;;;;;;;5052001;28;20731;-78
2023/01/13 05:28:26;;;;;;;1.30;1.30;;;;;;;;;;5052086;28;20229;-78
2023/01/13 05:30:55;;;;;;;1.73;1.47;;;;;;;;;;5052165;28;20241;-78
2023/01/13 05:33:22;;;;;;;2.03;1.83;;;;;;;;;;5052894;28;20217;-78
2023/01/13 05:35:49;;;;;;;0.90;0.90;;;;;;;;;;5051817;28;20240;-78
2023/01/13 05:38:17;;;;;;;1.63;1.53;;;;;;;;;;5052223;28;20250;-78
2023/01/13 05:43:31;;;;;;;1.27;1.27;;;;;;;;;;5052329;28;20185;-78
2023/01/13 05:46:01;;;;;;;1.33;1.23;;;;;;;;;;5051709;28;20326;-79
2023/01/13 05:48:33;;;;;;;1.27;1.27;;;;;;;;;;5051778;28;20607;-79
2023/01/13 05:51:01;;;;;;;1.53;1.40;;;;;;;;;;5051515;28;20240;-78
2023/01/13 05:53:28;;;;;;;2.30;1.50;;;;;;;;;;5051707;28;20582;-78
2023/01/13 05:55:55;;;;;;;1.83;1.23;;;;;;;;;;5051336;28;20234;-78
2023/01/13 05:58:24;;;;;;;2.30;1.50;;;;;;;;;;5051788;28;20240;-78
2023/01/13 06:00:51;;;;;;;2.33;1.80;;;;;;;;;;5051780;28;20237;-78
2023/01/13 06:03:20;;;;;;;2.57;1.40;;;;;;;;;;5051833;28;20240;-79
2023/01/13 06:05:49;;;;;;;1.20;1.20;;;;;;;;;;5051356;28;20616;-78
2023/01/13 06:08:17;;;;;;;3.00;1.50;;;;;;;;;;5051844;28;20237;-78
2023/01/13 06:10:44;;;;;;;1.67;1.30;;;;;;;;;;5051417;28;20253;-77
2023/01/13 06:13:11;;;;;;;1.70;1.50;;;;;;;;;;5051152;28;20214;-76
2023/01/13 06:15:38;;;;;;;3.13;1.60;;;;;;;;;;5051227;28;20234;-77
2023/01/13 06:18:06;;;;;;;2.07;1.40;;;;;;;;;;5051122;28;20236;-77
2023/01/13 06:20:34;;;;;;;3.60;1.80;;;;;;;;;;5051139;28;20244;-77
2023/01/13 06:23:01;;;;;;;3.10;1.50;;;;;;;;;;5051086;28;20206;-77
2023/01/13 06:25:38;;;;;;;1.40;1.30;;;;;;;;;;5051021;28;20234;-77
2023/01/13 06:28:05;;;;;;;1.70;1.47;;;;;;;;;;5051665;28;20586;-77
2023/01/13 06:30:37;;;;;;;1.70;1.60;;;;;;;;;;5050939;28;20249;-77
2023/01/13 06:33:05;;;;;;;1.53;1.40;;;;;;;;;;5051037;28;20206;-77
2023/01/13 06:35:34;;;;;;;2.50;1.50;;;;;;;;;;5050940;28;20237;-77
2023/01/13 06:38:04;;;;;;;1.80;1.70;;;;;;;;;;5051189;28;20226;-77
2023/01/13 06:40:31;;;;;;;2.13;1.63;;;;;;;;;;5052142;28;20225;-77
2023/01/13 06:43:16;;;;;;;1.00;1.00;;;;;;;;;;5054808;28;20210;-76
2023/01/13 06:45:48;;;;;;;1.33;1.27;;;;;;;;;;5054459;28;20908;-77
2023/01/13 06:48:16;;;;;;;1.60;1.47;;;;;;;;;;5054857;28;20741;-77
2023/01/13 06:50:43;;;;;;;1.57;1.47;;;;;;;;;;5054460;28;20323;-77
2023/01/13 06:53:12;;;;;;;1.20;1.20;;;;;;;;;;5054665;28;20212;-77
2023/01/13 06:55:39;;;;;;;1.63;1.50;;;;;;;;;;5054552;28;20233;-77
2023/01/13 06:58:06;;;;;;;2.20;1.20;;;;;;;;;;5074931;23;20230;-81
2023/01/13 07:00:35;;;;;;;1.77;1.20;;;;;;;;;;5038613;28;20234;-79
2023/01/13 07:03:09;;;;;;;3.43;1.27;;;;;;;;;;5049234;28;20230;-79
2023/01/13 07:05:36;;;;;;;2.93;1.40;;;;;;;;;;5054309;28;20613;-79
2023/01/13 07:08:03;;;;;;;1.13;1.13;;;;;;;;;;5054479;28;20221;-79
2023/01/13 07:10:32;;;;;;;2.20;1.73;;;;;;;;;;5054224;28;20237;-79
2023/01/13 07:15:53;;;;;;;2.13;1.73;;;;;;;;;;5054239;28;20232;-79
2023/01/13 07:18:20;;;;;;;1.90;1.53;;;;;;;;;;5054433;28;20659;-79
2023/01/13 07:20:52;;;;;;;2.00;1.80;;;;;;;;;;5053884;28;20238;-79
2023/01/13 07:23:19;;;;;;;1.60;1.50;;;;;;;;;;5054438;28;20194;-79
2023/01/13 07:25:47;;;;;;;1.20;1.20;;;;;;;;;;5053860;28;20705;-79
2023/01/13 07:28:15;;;;;;;1.37;1.30;;;;;;;;;;5054511;28;20350;-79
2023/01/13 07:30:42;;;;;;;1.80;1.47;;;;;;;;;;5054108;28;20660;-79
2023/01/13 07:33:09;;;;;;;2.63;1.90;;;;;;;;;;5054112;28;20206;-79
2023/01/13 07:35:36;;;;;;;6.43;3.80;;;;;;;;;;5053974;28;20225;-79
2023/01/13 07:38:03;;;;;;;2.10;1.90;;;;;;;;;;5054151;28;20222;-79
2023/01/13 07:40:30;;;;;;;2.10;1.57;;;;;;;;;;5053738;28;20234;-79
2023/01/13 07:45:43;;;;;;;1.77;1.30;;;;;;;;;;5053627;28;20241;-79
2023/01/13 07:48:10;;;;;;;1.10;1.10;;;;;;;;;;5053747;28;20229;-79
2023/01/13 07:50:37;;;;;;;2.50;1.40;;;;;;;;;;5053436;28;20237;-79
2023/01/13 07:53:04;;;;;;;1.40;1.37;;;;;;;;;;5052720;28;20214;-79
2023/01/13 07:55:31;;;;;;;2.10;1.40;;;;;;;;;;5053583;28;20433;-79
2023/01/13 07:58:00;;;;;;;1.57;1.50;;;;;;;;;;5053645;28;20248;-79
2023/01/13 08:00:27;;;;;;;1.47;1.47;;;;;;;;;;5053386;28;20236;-79
2023/01/13 08:02:54;;;;;;;1.80;1.70;;;;;;;;;;5040147;28;20203;-79
2023/01/13 08:05:21;;;;;;;1.60;1.50;;;;;;;;;;5033383;28;20246;-79
2023/01/13 08:07:48;;;;;;;1.57;1.47;;;;;;;;;;5033556;28;20230;-79
2023/01/13 08:10:15;;;;;;;1.60;1.50;;;;;;;;;;5033117;28;20238;-79
2023/01/13 08:15:29;;;;;;;2.07;1.47;;;;;;;;;;5033183;28;20241;-79
2023/01/13 08:17:57;;;;;;;1.40;1.30;;;;;;;;;;5033334;28;20258;-79
2023/01/13 08:20:24;;;;;;;1.50;1.30;;;;;;;;;;5032910;28;20238;-79
2023/01/13 08:22:51;;;;;;;1.67;1.57;;;;;;;;;;5033048;28;20219;-79
2023/01/13 08:25:18;;;;;;;1.83;1.70;;;;;;;;;;5032983;28;20272;-79
2023/01/13 08:27:45;;;;;;;1.80;1.60;;;;;;;;;;5033219;28;20649;-80
2023/01/13 08:30:12;;;;;;;3.63;1.90;;;;;;;;;;5032572;28;20243;-79
2023/01/13 08:32:40;;;;;;;2.30;1.40;;;;;;;;;;5033136;28;20244;-79
2023/01/13 08:35:08;;;;;;;1.70;1.60;;;;;;;;;;5032520;28;20238;-79
2023/01/13 08:37:35;;;;;;;1.37;1.30;;;;;;;;;;5033599;28;20280;-79
2023/01/13 08:40:02;;;;;;;1.40;1.40;;;;;;;;;;5032899;28;20234;-79
2023/01/13 08:42:29;;;;;;;2.13;1.70;;;;;;;;;;5033407;28;20203;-79
2023/01/13 08:44:57;;;;;;;1.60;1.50;;;;;;;;;;5033438;28;20599;-79
2023/01/13 08:47:24;;;;;;;2.57;1.50;;;;;;;;;;5033546;28;20233;-79
2023/01/13 08:49:52;;;;;;;1.40;1.30;;;;;;;;;;5033326;28;20265;-79
2023/01/13 08:52:19;;;;;;;1.33;1.30;;;;;;;;;;5033532;28;20202;-80
2023/01/13 08:54:46;;;;;;;3.63;1.70;;;;;;;;;;5032691;28;20207;-79
2023/01/13 08:57:14;;;;;;;2.20;1.63;;;;;;;;;;5032940;28;20256;-80
2023/01/13 08:59:42;;;;;;;2.80;1.40;;;;;;;;;;5032916;28;20649;-80
2023/01/13 09:02:13;;;;;;;1.80;1.70;;;;;;;;;;5032448;28;20239;-80
2023/01/13 09:04:41;;;;;;;1.53;1.40;;;;;;;;;;5032795;28;20280;-79
2023/01/13 09:07:09;;;;;;;1.30;1.30;;;;;;;;;;5033030;28;20234;-79
2023/01/13 09:09:36;;;;;;;2.33;1.70;;;;;;;;;;5032805;28;20238;-80
2023/01/13 09:14:48;;;;;;;1.50;1.37;;;;;;;;;;5032594;28;20309;-79
2023/01/13 09:17:15;;;;;;;1.50;1.40;;;;;;;;;;5032722;28;20206;-79
2023/01/13 09:19:43;;;;;;;1.47;1.37;;;;;;;;;;5032822;28;20226;-79
2023/01/13 09:22:14;;;;;;;2.23;2.07;;;;;;;;;;5033167;28;20207;-80
2023/01/13 09:24:41;;;;;;;1.60;1.50;;;;;;;;;;5032581;28;20206;-80
2023/01/13 09:27:09;;;;;;;1.50;1.40;;;;;;;;;;5032482;28;20231;-80
2023/01/13 09:29:36;;;;;;;2.37;1.67;;;;;;;;;;5032895;28;20285;-80
2023/01/13 09:32:03;;;;;;;2.03;1.40;;;;;;;;;;5032141;28;20237;-79
2023/01/13 09:37:16;;;;;;;4.63;1.83;;;;;;;;;;5032588;28;20210;-79
2023/01/13 09:39:43;;;;;;;2.33;1.30;;;;;;;;;;5032325;28;20253;-79
2023/01/13 09:45:03;;;;;;;3.13;1.50;;;;;;;;;;5032206;28;20233;-79
2023/01/13 09:47:32;;;;;;;2.00;1.33;;;;;;;;;;5032212;28;20230;-79
2023/01/13 09:50:03;;;;;;;2.97;1.70;;;;;;;;;;5031727;28;20693;-79
2023/01/13 09:52:31;;;;;;;2.53;1.60;;;;;;;;;;5032036;28;20623;-79
2023/01/13 09:55:01;;;;;;;2.03;1.50;;;;;;;;;;5032275;28;20218;-79
2023/01/13 09:57:28;;;;;;;3.83;1.80;;;;;;;;;;5032516;28;20199;-79
2023/01/13 09:59:58;;;;;;;1.60;1.50;;;;;;;;;;5032185;28;20195;-79
2023/01/13 10:02:32;;;;;;;2.73;1.50;;;;;;;;;;5041992;28;20298;-79
2023/01/13 10:05:03;;;;;;;3.03;1.43;;;;;;;;;;5052187;28;20309;-79
2023/01/13 10:07:33;;;;;;;7.30;1.70;;;;;;;;;;5051817;28;20229;-79
2023/01/13 10:10:02;;;;;;;5.20;1.50;;;;;;;;;;5051991;28;20240;-79
2023/01/13 10:15:16;;;;;;;2.73;1.77;;;;;;;;;;5053446;28;20324;-79
2023/01/13 10:17:46;;;;;;;2.63;1.73;;;;;;;;;;5056149;28;20225;-79
2023/01/13 10:20:17;;;;;;;2.67;1.60;;;;;;;;;;5055483;28;20233;-79
2023/01/13 10:22:51;;;;;;;3.00;1.73;;;;;;;;;;5055542;28;20205;-79
2023/01/13 10:25:24;;;;;;;1.60;1.50;;;;;;;;;;5055254;28;20268;-79
2023/01/13 10:27:52;;;;;;;2.37;1.50;;;;;;;;;;5056023;28;20237;-79
2023/01/13 10:30:21;;;;;;;3.17;1.80;;;;;;;;;;5055672;28;20238;-79
2023/01/13 10:32:51;;;;;;;1.97;1.73;;;;;;;;;;5055494;28;20570;-79
2023/01/13 10:35:18;;;;;;;2.37;1.70;;;;;;;;;;5055424;28;20771;-79
2023/01/13 10:37:55;;;;;;;1.63;1.53;;;;;;;;;;5055480;28;20222;-79
2023/01/13 10:40:25;;;;;;;2.07;1.60;;;;;;;;;;5055249;28;20238;-79
2023/01/13 10:43:05;;;;;;;2.73;1.80;;;;;;;;;;5055233;28;20209;-80
2023/01/13 10:45:32;;;;;;;2.00;1.80;;;;;;;;;;5055166;28;20237;-79
2023/01/13 10:48:07;;;;;;;5.00;1.70;;;;;;;;;;5055735;28;20233;-79
2023/01/13 10:50:35;;;;;;;5.10;1.87;;;;;;;;;;5054854;28;20803;-79
2023/01/13 10:53:16;;;;;;;5.23;1.90;;;;;;;;;;5055576;28;20210;-79
2023/01/13 10:55:43;;;;;;;2.87;1.90;;;;;;;;;;5055222;28;20240;-79
2023/01/13 10:58:14;;;;;;;2.70;1.90;;;;;;;;;;5055257;28;20253;-79
2023/01/13 11:00:41;;;;;;;2.73;1.87;;;;;;;;;;5055050;28;20229;-79
2023/01/13 11:03:19;;;;;;;5.27;1.70;;;;;;;;;;5055049;28;20202;-79
2023/01/13 11:05:50;;;;;;;2.20;1.77;;;;;;;;;;5054894;28;20721;-79
2023/01/13 11:08:20;;;;;;;3.17;1.70;;;;;;;;;;5055676;28;20276;-79
2023/01/13 11:10:49;;;;;;;6.67;2.23;;;;;;;;;;5055484;28;20237;-79
2023/01/13 11:13:17;;;;;;;3.73;1.97;;;;;;;;;;5054970;28;20209;-79
2023/01/13 11:15:47;;;;;;;2.63;1.83;;;;;;;;;;5054820;28;20234;-79
2023/01/13 11:18:18;;;;;;;3.23;1.83;;;;;;;;;;5054988;28;20221;-79
2023/01/13 11:20:47;;;;;;;4.50;2.07;;;;;;;;;;5054787;28;20280;-79
2023/01/13 11:23:16;;;;;;;4.00;2.00;;;;;;;;;;5054967;28;20276;-79
2023/01/13 11:25:45;;;;;;;2.33;1.80;;;;;;;;;;5054798;28;20234;-79
2023/01/13 11:28:18;;;;;;;4.83;1.83;;;;;;;;;;5054734;28;20242;-79
2023/01/13 11:30:48;;;;;;;1.93;1.70;;;;;;;;;;5054555;28;20241;-79
2023/01/13 11:33:26;;;;;;;6.00;1.90;;;;;;;;;;5054588;28;20206;-79
2023/01/13 11:35:59;;;;;;;1.60;1.50;;;;;;;;;;5054916;28;20238;-82
2023/01/13 11:38:28;;;;;;;1.77;1.67;;;;;;;;;;5054772;28;20222;-79
2023/01/13 11:40:59;;;;;;;4.13;2.10;;;;;;;;;;5054793;28;20238;-79
2023/01/13 11:43:30;;;;;;;2.37;1.73;;;;;;;;;;5054783;28;20191;-79
2023/01/13 11:45:58;;;;;;;3.93;2.07;;;;;;;;;;5054451;28;20237;-79
2023/01/13 11:48:27;;;;;;;4.90;1.90;;;;;;;;;;5054467;28;20837;-79
2023/01/13 11:50:57;;;;;;;5.93;1.77;;;;;;;;;;5054290;28;20233;-81
2023/01/13 11:53:32;;;;;;;3.83;2.00;;;;;;;;;;5054256;28;20228;-79
2023/01/13 11:56:06;;;;;;;5.13;2.30;;;;;;;;;;5053908;28;20236;-79
2023/01/13 11:58:53;;;;;;;4.57;2.17;;;;;;;;;;5054145;28;20669;-79
2023/01/13 12:01:29;;;;;;;4.20;2.10;;;;;;;;;;5053206;28;20233;-81
2023/01/13 12:04:01;;;;;;;3.63;1.87;;;;;;;;;;5034501;28;20211;-82
2023/01/13 12:06:32;;;;;;;3.80;2.37;;;;;;;;;;5033974;28;20230;-79
2023/01/13 12:09:10;;;;;;;3.97;2.07;;;;;;;;;;5034866;28;20233;-79
2023/01/13 12:14:31;;;;;;;6.13;2.47;;;;;;;;;;5033546;28;20961;-80
2023/01/13 12:16:58;;;;;;;4.43;2.23;;;;;;;;;;5033575;28;20238;-80
2023/01/13 12:19:27;;;;;;;4.83;2.17;;;;;;;;;;5034333;28;20231;-80
2023/01/13 12:22:21;;;;;;;5.47;2.17;;;;;;;;;;5033551;28;20316;-79
2023/01/13 12:24:51;;;;;;;6.87;2.40;;;;;;;;;;4987099;28;20203;-82
2023/01/13 12:27:22;;;;;;;5.17;2.37;;;;;;;;;;5033760;28;20218;-80
2023/01/13 12:29:52;;;;;;;6.50;2.80;;;;;;;;;;5033355;28;20210;-80
2023/01/13 12:32:20;;;;;;;4.83;2.30;;;;;;;;;;5033617;28;20247;-81
2023/01/13 12:34:55;;;;;;;6.83;2.10;;;;;;;;;;5033772;28;20237;-80
2023/01/13 12:37:27;;;;;;;5.47;2.03;;;;;;;;;;5033622;28;20285;-80
2023/01/13 12:40:02;;;;;;;8.43;2.43;;;;;;;;;;5033383;28;20202;-80
2023/01/13 12:45:24;;;;;;;6.17;2.50;;;;;;;;;;5035918;28;20244;-80
2023/01/13 12:47:52;;;;;;;3.17;1.80;;;;;;;;;;5036288;28;20317;-80
2023/01/13 12:50:39;;;;;;;3.20;1.97;;;;;;;;;;5033246;28;20245;-80
2023/01/13 12:53:21;;;;;;;7.23;2.03;;;;;;;;;;5032842;28;20674;-80
2023/01/13 12:55:52;;;;;;;3.57;1.90;;;;;;;;;;5032369;28;20234;-81
2023/01/13 12:58:26;;;;;;;4.13;1.67;;;;;;;;;;5058865;23;20237;-78
2023/01/13 13:00:54;;;;;;;6.27;2.07;;;;;;;;;;5043976;28;20234;-78
2023/01/13 13:03:32;;;;;;;3.20;2.27;;;;;;;;;;5052206;28;20675;-80
2023/01/13 13:06:04;;;;;;;5.30;1.87;;;;;;;;;;5052223;28;20240;-81
2023/01/13 13:08:43;;;;;;;3.97;1.73;;;;;;;;;;5052459;28;20226;-81
2023/01/13 13:14:12;;;;;;;2.57;1.93;;;;;;;;;;5052316;28;20918;-81
2023/01/13 13:16:49;;;;;;;5.10;1.70;;;;;;;;;;5051806;28;20242;-81
2023/01/13 13:19:35;;;;;;;1.70;1.60;;;;;;;;;;5052429;28;20237;-80
2023/01/13 13:22:17;;;;;;;3.60;1.97;;;;;;;;;;5051654;28;20242;-80
2023/01/13 13:25:04;;;;;;;2.10;1.80;;;;;;;;;;5052054;28;20190;-81
2023/01/13 13:27:39;;;;;;;2.70;2.00;;;;;;;;;;5051925;28;20221;-81
2023/01/13 13:30:13;;;;;;;3.97;2.13;;;;;;;;;;5051880;28;20237;-81
2023/01/13 13:32:52;;;;;;;3.53;2.70;;;;;;;;;;5051910;28;20213;-81
2023/01/13 13:35:34;;;;;;;6.53;1.83;;;;;;;;;;5051457;28;20722;-81
2023/01/13 13:46:47;;;;;;;2.13;1.93;;;;;;;;;;5051848;28;20295;-81
2023/01/13 13:49:15;;;;;;;5.47;1.83;;;;;;;;;;5051935;28;20257;-81
2023/01/13 13:51:45;;;;;;;4.90;2.00;;;;;;;;;;5051250;28;20237;-80
2023/01/13 13:54:14;;;;;;;3.63;2.20;;;;;;;;;;5051455;28;20237;-81
2023/01/13 13:56:44;;;;;;;4.43;1.93;;;;;;;;;;5051225;28;20264;-81
2023/01/13 13:59:12;;;;;;;7.43;2.27;;;;;;;;;;5051477;28;20324;-82
2023/01/13 14:01:41;;;;;;;5.17;2.40;;;;;;;;;;5051134;28;20234;-81
2023/01/13 14:04:12;;;;;;;3.33;1.80;;;;;;;;;;5051644;28;20221;-81
2023/01/13 14:06:49;;;;;;;5.90;2.10;;;;;;;;;;5051376;28;20238;-81
2023/01/13 14:09:17;;;;;;;2.23;1.80;;;;;;;;;;5051785;28;20241;-81
2023/01/13 14:11:44;;;;;;;6.77;1.97;;;;;;;;;;5051186;28;20291;-81
2023/01/13 14:14:15;;;;;;;6.07;2.07;;;;;;;;;;5051146;28;20221;-81
2023/01/13 14:16:45;;;;;;;4.70;1.90;;;;;;;;;;5051047;28;20241;-81
2023/01/13 14:19:24;;;;;;;9.33;2.30;;;;;;;;;;5051252;28;20775;-80
2023/01/13 14:21:51;;;;;;;3.03;1.53;;;;;;;;;;5051406;28;20245;-81
2023/01/13 14:24:19;;;;;;;20.87;2.77;;;;;;;;;;5051593;28;20221;-81
2023/01/13 14:26:50;;;;;;;4.40;2.20;;;;;;;;;;5051136;28;20253;-81
2023/01/13 14:29:20;;;;;;;5.97;2.57;;;;;;;;;;5051572;28;20226;-81
2023/01/13 14:31:49;;;;;;;5.17;2.40;;;;;;;;;;5050964;28;20233;-81
2023/01/13 14:34:17;;;;;;;2.40;1.50;;;;;;;;;;5051171;28;20541;-81
2023/01/13 14:36:46;;;;;;;3.77;2.23;;;;;;;;;;5050904;28;20257;-81
2023/01/13 14:39:33;;;;;;;3.47;2.17;;;;;;;;;;5051254;28;20222;-80
2023/01/13 14:42:00;;;;;;;5.23;2.63;;;;;;;;;;5050870;28;20284;-81
2023/01/13 14:44:28;;;;;;;9.23;2.03;;;;;;;;;;5051154;28;20199;-81
2023/01/13 14:46:58;;;;;;;6.87;2.60;;;;;;;;;;5050848;28;20736;-81
2023/01/13 14:49:27;;;;;;;4.27;2.50;;;;;;;;;;5051171;28;20226;-80
2023/01/13 14:51:55;;;;;;;6.43;2.33;;;;;;;;;;5050869;28;20237;-81
2023/01/13 14:54:40;;;;;;;7.03;2.83;;;;;;;;;;5051322;28;20232;-81
2023/01/13 14:57:12;;;;;;;2.87;1.70;;;;;;;;;;5050880;28;20624;-80
2023/01/13 14:59:44;;;;;;;4.23;2.03;;;;;;;;;;5051033;28;20246;-81
2023/01/13 15:02:33;;;;;;;4.80;2.13;;;;;;;;;;5053203;28;20229;-80
2023/01/13 15:05:21;;;;;;;2.27;2.07;;;;;;;;;;5054561;28;20198;-80
2023/01/13 15:07:49;;;;;;;5.97;1.97;;;;;;;;;;5054430;28;20320;-81
2023/01/13 15:10:17;;;;;;;4.07;2.07;;;;;;;;;;5054459;28;20286;-80
2023/01/13 15:12:45;;;;;;;3.60;1.80;;;;;;;;;;5054450;28;20198;-81
2023/01/13 15:15:22;;;;;;;4.40;2.03;;;;;;;;;;5054115;28;20238;-79
2023/01/13 15:17:51;;;;;;;2.17;1.73;;;;;;;;;;5054469;28;20206;-78
2023/01/13 15:20:19;;;;;;;2.87;2.03;;;;;;;;;;5054051;28;20241;-79
2023/01/13 15:22:46;;;;;;;4.97;2.03;;;;;;;;;;5054273;28;20217;-79
2023/01/13 15:25:13;;;;;;;3.57;1.77;;;;;;;;;;5054114;28;20233;-79
2023/01/13 15:27:41;;;;;;;3.13;1.87;;;;;;;;;;5053863;28;20213;-79
2023/01/13 15:30:14;;;;;;;2.70;1.70;;;;;;;;;;5053567;28;20237;-79
2023/01/13 15:32:41;;;;;;;4.13;2.03;;;;;;;;;;5054141;28;20210;-79
2023/01/13 15:35:10;;;;;;;3.67;2.20;;;;;;;;;;5053692;28;20240;-79
2023/01/13 15:37:37;;;;;;;4.73;2.10;;;;;;;;;;5054026;28;20562;-79
2023/01/13 15:40:05;;;;;;;2.87;2.33;;;;;;;;;;5053655;28;20238;-79
2023/01/13 15:48:02;;;;;;;4.80;2.87;;;;;;;;;;5054015;28;20237;-79
2023/01/13 15:50:30;;;;;;;7.50;3.30;;;;;;;;;;5053466;28;20241;-79
2023/01/13 15:52:57;;;;;;;4.53;1.93;;;;;;;;;;5054041;28;20210;-80
2023/01/13 15:55:24;;;;;;;4.47;2.00;;;;;;;;;;5053490;28;20237;-79
2023/01/13 15:57:51;;;;;;;3.80;2.53;;;;;;;;;;5053713;28;20205;-79
2023/01/13 16:00:20;;;;;;;3.13;2.30;;;;;;;;;;5053411;28;20712;-81
2023/01/13 16:02:47;;;;;;;5.43;2.30;;;;;;;;;;5053675;28;20210;-79
2023/01/13 16:05:14;;;;;;;4.23;2.40;;;;;;;;;;5053196;28;20245;-79
2023/01/13 16:07:43;;;;;;;4.37;2.33;;;;;;;;;;5053331;28;20201;-79
2023/01/13 16:10:16;;;;;;;3.73;1.83;;;;;;;;;;5053132;28;20234;-80